»·PEaware :: BTQ755 KPDX-KBFI

BTQ755 :: KPDX-KBFI

FLIGHT INFORMATION

Flight Status: Arrived
Operator: Unknown
More flights by this operator :: More flights under this callsign
Pilot: Armando C. (16967)
Aircraft: PILATUS PC-12 EAGLE
(PC12)
More flights by this aircraft type
Origin: KPDX Portland Intl
United States
Destination: KBFI Boeing Field/King Co Intl
United States
More flights between these airports :: More routes between these airports
Route: BTG OLM2
File this flight plan on PilotEdge
Remarks:
Altitude:
(Current/Filed)
140ft
Speed:
(Current/Filed)
235kts
Departed: 23-Dec-17 01:03 PM
Arrived: 23-Dec-17 01:45 PM
Distance/Time
Traveled:
118nm/0:42
Distance/Time
To Go:
Arrived

Flight Plot

Page will automatically refresh every two minutes.


Map Options




Map Legend


Flown Route
Filed Route
Departure Airport
Arrival Airport
Navaid (VOR, NDB)
Fix

Horizontal Profiles

Position Reports

Time Latitude Longitude Heading Altitude Ground
Speed
23-Dec-17 12:42 45.586844 -122.581702 206 33ft 0kts
23-Dec-17 12:43 45.586843 -122.581703 206 33ft 0kts
23-Dec-17 12:44 45.586842 -122.581703 206 33ft 0kts
23-Dec-17 12:45 45.586842 -122.581704 206 33ft 0kts
23-Dec-17 12:46 45.586841 -122.581704 206 33ft 0kts
23-Dec-17 12:47 45.586840 -122.581705 206 33ft 0kts
23-Dec-17 12:48 45.586840 -122.581705 206 33ft 0kts
23-Dec-17 12:49 45.586839 -122.581706 206 33ft 0kts
23-Dec-17 12:50 45.586838 -122.581706 206 33ft 0kts
23-Dec-17 12:51 45.586838 -122.581707 206 33ft 0kts
23-Dec-17 12:52 45.586837 -122.581707 206 33ft 0kts
23-Dec-17 12:53 45.586836 -122.581708 206 33ft 0kts
23-Dec-17 12:54 45.586836 -122.581708 206 33ft 0kts
23-Dec-17 12:55 45.586835 -122.581708 206 33ft 0kts
23-Dec-17 12:56 45.586834 -122.581709 206 33ft 0kts
23-Dec-17 12:57 45.586834 -122.581709 206 33ft 0kts
23-Dec-17 12:58 45.586833 -122.581710 206 33ft 0kts
23-Dec-17 12:59 45.586812 -122.581734 227 33ft 1kts
23-Dec-17 13:00 45.588004 -122.582073 26 33ft 6kts
23-Dec-17 13:01 45.589050 -122.583492 299 33ft 4kts
23-Dec-17 13:02 45.589587 -122.584918 297 33ft 3kts
23-Dec-17 13:03 45.590062 -122.586129 300 33ft 3kts
23-Dec-17 13:04 45.590830 -122.587999 299 33ft 9kts
23-Dec-17 13:05 45.592467 -122.592111 300 33ft 14kts
23-Dec-17 13:06 45.594490 -122.597155 332 33ft 9kts
23-Dec-17 13:07 45.594752 -122.597136 53 33ft 0kts
23-Dec-17 13:08 45.594864 -122.596925 52 33ft 3kts
23-Dec-17 13:09 45.587071 -122.576903 116 470ft 124kts
23-Dec-17 13:10 45.568310 -122.527261 116 2227ft 149kts
23-Dec-17 13:11 45.575725 -122.477905 7 4031ft 172kts
23-Dec-17 13:12 45.619718 -122.504672 330 5856ft 174kts
23-Dec-17 13:13 45.663725 -122.535498 330 7672ft 177kts
23-Dec-17 13:14 45.708671 -122.564185 331 9492ft 173kts
23-Dec-17 13:15 45.753363 -122.589785 337 11292ft 176kts
23-Dec-17 13:16 45.801145 -122.604371 343 13105ft 173kts
23-Dec-17 13:17 45.851348 -122.617256 343 14009ft 209kts
23-Dec-17 13:18 45.915094 -122.633252 343 14011ft 257kts
23-Dec-17 13:19 45.987753 -122.651190 343 14006ft 268kts
23-Dec-17 13:20 46.062890 -122.670384 355 14021ft 272kts
23-Dec-17 13:21 46.131305 -122.687638 356 14010ft 236kts
23-Dec-17 13:22 46.195728 -122.703484 357 14010ft 237kts
23-Dec-17 13:23 46.263795 -122.720127 347 14006ft 265kts
23-Dec-17 13:24 46.340028 -122.739553 344 13999ft 283kts
23-Dec-17 13:25 46.417432 -122.759387 345 14007ft 270kts
23-Dec-17 13:26 46.482432 -122.775931 346 13990ft 226kts
23-Dec-17 13:27 46.544526 -122.791933 346 13991ft 228kts
23-Dec-17 13:28 46.607674 -122.808230 347 13601ft 233kts
23-Dec-17 13:29 46.671357 -122.824523 347 12800ft 231kts
23-Dec-17 13:30 46.734509 -122.840751 347 12071ft 227kts
23-Dec-17 13:31 46.797017 -122.856860 345 11494ft 233kts
23-Dec-17 13:32 46.861999 -122.873684 345 10492ft 242kts
23-Dec-17 13:33 46.929943 -122.891399 348 9493ft 252kts
23-Dec-17 13:34 46.995376 -122.871144 37 8508ft 245kts
23-Dec-17 13:35 47.046342 -122.807458 44 7516ft 237kts
23-Dec-17 13:36 47.095102 -122.744890 44 6700ft 226kts
23-Dec-17 13:37 47.141862 -122.684973 44 6817ft 223kts
23-Dec-17 13:38 47.189147 -122.624259 44 6836ft 226kts
23-Dec-17 13:39 47.236670 -122.563199 44 6886ft 226kts
23-Dec-17 13:40 47.283132 -122.503446 43 6895ft 219kts
23-Dec-17 13:41 47.332656 -122.455032 35 6368ft 193kts
23-Dec-17 13:42 47.371066 -122.419726 35 5425ft 124kts
23-Dec-17 13:43 47.397839 -122.396399 35 4393ft 103kts
23-Dec-17 13:44 47.411954 -122.370218 93 3596ft 63kts
23-Dec-17 13:45 47.427210 -122.350173 39 4022ft 83kts
23-Dec-17 13:46 47.448082 -122.334506 31 4900ft 90kts
23-Dec-17 13:47 47.468545 -122.313958 58 4166ft 83kts
23-Dec-17 13:48 47.482074 -122.285725 54 2442ft 83kts
23-Dec-17 13:49 47.502195 -122.278873 323 878ft 81kts
23-Dec-17 13:50 47.519675 -122.294063 329 26ft 52kts
23-Dec-17 13:51 47.526146 -122.299224 2 21ft 15kts
23-Dec-17 13:52 47.527814 -122.297394 0 21ft 15kts
23-Dec-17 13:53 47.532748 -122.302082 325 21ft 25kts
23-Dec-17 13:54 47.538494 -122.306970 26 21ft 3kts
23-Dec-17 13:55 47.537943 -122.305987 153 21ft 0kts
23-Dec-17 13:56 47.536831 -122.304991 147 21ft 0kts
23-Dec-17 13:57 47.536831 -122.304991 147 21ft 0kts
23-Dec-17 13:58 47.536831 -122.304991 147 21ft 0kts
23-Dec-17 13:59 47.536831 -122.304991 147 21ft 0kts

Navigation Log

Ident Type
Flight plan parsing failed, navigation log unavailable